createdAt,value
2017-10-19T00:01:27.536Z,14.80
2017-10-19T00:03:55.147Z,14.70
2017-10-19T00:06:22.810Z,14.23
2017-10-19T00:08:50.595Z,14.90
2017-10-19T00:11:18.264Z,13.63
2017-10-19T00:13:45.936Z,14.80
2017-10-19T00:16:13.602Z,14.20
2017-10-19T00:18:41.282Z,15.10
2017-10-19T00:21:08.896Z,13.53
2017-10-19T00:23:36.557Z,13.07
2017-10-19T00:26:04.170Z,14.13
2017-10-19T00:28:31.784Z,14.43
2017-10-19T00:30:59.469Z,14.80
2017-10-19T00:33:27.093Z,15.43
2017-10-19T00:35:54.703Z,15.13
2017-10-19T00:38:22.364Z,13.80
2017-10-19T00:40:49.975Z,12.90
2017-10-19T00:43:17.583Z,11.43
2017-10-19T00:45:45.252Z,11.40
2017-10-19T00:48:12.864Z,12.60
2017-10-19T00:50:40.544Z,10.73
2017-10-19T00:53:08.221Z,10.87
2017-10-19T00:55:35.871Z,10.23
2017-10-19T00:58:03.502Z,11.03
2017-10-19T01:00:31.195Z,13.00
2017-10-19T01:02:58.807Z,12.37
2017-10-19T01:05:26.415Z,10.87
2017-10-19T01:07:54.135Z,11.37
2017-10-19T01:10:21.750Z,10.43
2017-10-19T01:12:49.371Z,11.30
2017-10-19T01:15:17.035Z,10.60
2017-10-19T01:17:44.655Z,10.43
2017-10-19T01:20:12.276Z,9.10
2017-10-19T01:22:40.007Z,9.07
2017-10-19T01:25:07.667Z,9.07
2017-10-19T01:27:35.285Z,11.00
2017-10-19T01:30:02.973Z,11.00
2017-10-19T01:32:30.591Z,10.33
2017-10-19T01:34:58.200Z,10.10
2017-10-19T01:37:25.970Z,8.37
2017-10-19T01:39:53.715Z,9.90
2017-10-19T01:42:21.391Z,10.63
2017-10-19T01:44:49.055Z,9.23
2017-10-19T01:47:16.675Z,8.20
2017-10-19T01:49:56.311Z,8.40
2017-10-19T01:52:23.976Z,8.50
2017-10-19T01:54:51.635Z,8.50
2017-10-19T01:57:19.460Z,9.67
2017-10-19T01:59:47.128Z,8.40
2017-10-19T02:02:14.800Z,9.70
2017-10-19T02:04:42.461Z,12.63
2017-10-19T02:07:10.063Z,10.90
2017-10-19T02:09:37.723Z,9.97
2017-10-19T02:12:05.438Z,12.83
2017-10-19T02:14:33.067Z,10.03
2017-10-19T02:17:00.675Z,10.40
2017-10-19T02:19:28.328Z,9.53
2017-10-19T02:21:55.942Z,9.03
2017-10-19T02:24:23.599Z,8.83
2017-10-19T02:26:51.317Z,10.03
2017-10-19T02:29:18.921Z,12.97
2017-10-19T02:31:46.527Z,10.50
2017-10-19T02:34:14.193Z,10.23
2017-10-19T02:36:41.805Z,10.90
2017-10-19T02:39:09.504Z,10.07
2017-10-19T02:41:37.154Z,9.10
2017-10-19T02:44:04.763Z,10.53
2017-10-19T02:46:32.370Z,12.33
2017-10-19T02:49:00.027Z,10.83
2017-10-19T02:51:27.634Z,11.00
2017-10-19T02:53:55.255Z,11.10
2017-10-19T02:56:22.995Z,12.10
2017-10-19T02:58:50.622Z,12.13
2017-10-19T03:01:18.228Z,14.13
2017-10-19T03:03:45.968Z,12.97
2017-10-19T03:06:13.646Z,14.53
2017-10-19T03:08:41.252Z,13.90
2017-10-19T03:11:08.931Z,14.80
2017-10-19T03:13:36.538Z,14.60
2017-10-19T03:16:04.212Z,11.87
2017-10-19T03:18:31.870Z,11.07
2017-10-19T03:20:59.482Z,12.80
2017-10-19T03:23:27.079Z,16.47
2017-10-19T03:25:54.719Z,17.50
2017-10-19T03:28:22.331Z,17.20
2017-10-19T03:30:50.012Z,15.73
2017-10-19T03:33:17.667Z,11.47
2017-10-19T03:35:45.287Z,11.47
2017-10-19T03:38:13.270Z,10.33
2017-10-19T03:40:40.919Z,8.63
2017-10-19T03:43:08.583Z,10.33
2017-10-19T03:45:36.247Z,14.90
2017-10-19T03:48:03.910Z,22.07
2017-10-19T03:50:31.593Z,18.20
2017-10-19T03:52:59.254Z,14.83
2017-10-19T03:55:26.891Z,12.80
2017-10-19T03:57:54.546Z,12.57
2017-10-19T04:00:22.223Z,15.40
2017-10-19T04:02:49.867Z,19.70
2017-10-19T04:05:17.467Z,13.33
2017-10-19T04:07:45.183Z,15.30
2017-10-19T04:10:12.841Z,10.73
2017-10-19T04:12:41.282Z,15.37
2017-10-19T04:15:08.892Z,11.33
2017-10-19T04:17:36.535Z,10.43
2017-10-19T04:20:04.127Z,9.80
2017-10-19T04:22:31.718Z,9.90
2017-10-19T04:24:59.424Z,10.43
2017-10-19T04:27:27.027Z,14.47
2017-10-19T04:29:54.687Z,15.53
2017-10-19T04:32:22.383Z,11.67
2017-10-19T04:34:49.990Z,12.83
2017-10-19T04:37:17.587Z,13.57
2017-10-19T04:39:45.288Z,13.97
2017-10-19T04:42:12.882Z,14.63
2017-10-19T04:44:40.547Z,12.70
2017-10-19T04:47:08.268Z,13.03
2017-10-19T04:49:35.987Z,14.67
2017-10-19T04:52:03.590Z,14.37
2017-10-19T04:54:31.252Z,15.80
2017-10-19T04:56:58.931Z,15.07
2017-10-19T04:59:26.545Z,14.17
2017-10-19T05:01:54.260Z,14.10
2017-10-19T05:04:21.972Z,14.07
2017-10-19T05:06:49.635Z,14.03
2017-10-19T05:09:17.344Z,14.43
2017-10-19T05:11:45.063Z,14.37
2017-10-19T05:14:12.688Z,18.10
2017-10-19T05:16:40.381Z,13.97
2017-10-19T05:19:08.055Z,13.70
2017-10-19T05:21:35.675Z,15.87
2017-10-19T05:24:03.335Z,15.57
2017-10-19T05:26:30.940Z,13.90
2017-10-19T05:28:58.544Z,14.97
2017-10-19T05:31:26.348Z,15.68
2017-10-19T05:33:54.007Z,14.20
2017-10-19T05:36:21.611Z,14.33
2017-10-19T05:38:49.267Z,13.50
2017-10-19T05:41:16.875Z,13.10
2017-10-19T05:43:44.478Z,14.57
2017-10-19T05:46:12.191Z,12.10
2017-10-19T05:48:39.797Z,13.20
2017-10-19T05:51:07.415Z,13.60
2017-10-19T05:53:35.133Z,13.03
2017-10-19T05:56:02.754Z,13.30
2017-10-19T05:58:30.354Z,13.57
2017-10-19T06:00:58.072Z,13.77
2017-10-19T06:03:25.687Z,15.97
2017-10-19T06:05:53.291Z,14.90
2017-10-19T06:08:20.954Z,15.20
2017-10-19T06:10:48.615Z,14.87
2017-10-19T06:13:16.280Z,15.27
2017-10-19T06:15:43.984Z,15.93
2017-10-19T06:18:11.587Z,16.60
2017-10-19T06:20:39.191Z,16.53
2017-10-19T06:23:06.843Z,15.57
2017-10-19T06:25:34.512Z,15.60
2017-10-19T06:28:02.125Z,18.23
2017-10-19T06:30:29.847Z,16.20
2017-10-19T06:32:57.520Z,13.67
2017-10-19T06:35:25.179Z,12.10
2017-10-19T06:37:52.831Z,14.70
2017-10-19T06:40:20.438Z,13.97
2017-10-19T06:42:48.110Z,11.77
2017-10-19T06:45:15.856Z,13.20
2017-10-19T06:47:43.484Z,12.80
2017-10-19T06:50:11.115Z,12.17
2017-10-19T06:52:38.800Z,12.30
2017-10-19T06:55:06.404Z,12.97
2017-10-19T06:57:34.021Z,13.57
2017-10-19T07:00:01.685Z,11.83
2017-10-19T07:02:29.298Z,13.10
2017-10-19T07:04:56.967Z,11.47
2017-10-19T07:07:24.680Z,13.13
2017-10-19T07:09:52.283Z,12.10
2017-10-19T07:12:19.887Z,11.50
2017-10-19T07:14:47.704Z,12.03
2017-10-19T07:17:15.316Z,11.83
2017-10-19T07:19:42.927Z,10.77
2017-10-19T07:22:10.591Z,12.70
2017-10-19T07:24:38.199Z,12.87
2017-10-19T07:27:05.872Z,14.33
2017-10-19T07:29:33.580Z,10.43
2017-10-19T07:32:01.195Z,10.60
2017-10-19T07:34:28.799Z,10.57
2017-10-19T07:36:56.462Z,9.37
2017-10-19T07:39:24.071Z,7.93
2017-10-19T07:41:51.744Z,9.20
2017-10-19T07:44:19.404Z,8.50
2017-10-19T07:46:47.007Z,10.17
2017-10-19T07:49:14.619Z,10.93
2017-10-19T07:51:42.341Z,9.63
2017-10-19T07:54:09.962Z,9.70
2017-10-19T07:56:37.617Z,8.33
2017-10-19T07:59:05.332Z,8.90
2017-10-19T08:01:32.935Z,9.60
2017-10-19T08:04:00.540Z,11.07
2017-10-19T08:06:28.186Z,11.87
2017-10-19T08:08:55.791Z,13.47
2017-10-19T08:11:23.396Z,12.93
2017-10-19T08:13:51.172Z,13.10
2017-10-19T08:16:18.835Z,12.57
2017-10-19T08:18:46.440Z,10.47
2017-10-19T08:21:14.100Z,10.20
2017-10-19T08:23:41.764Z,11.20
2017-10-19T08:26:09.376Z,10.73
2017-10-19T08:28:37.131Z,11.40
2017-10-19T08:31:04.795Z,11.23
2017-10-19T08:33:32.463Z,11.57
2017-10-19T08:36:00.120Z,11.40
2017-10-19T08:38:27.788Z,14.53
2017-10-19T08:40:55.451Z,12.13
2017-10-19T08:43:23.298Z,13.47
2017-10-19T08:45:50.960Z,13.37
2017-10-19T08:48:18.623Z,14.93
2017-10-19T08:50:46.342Z,14.43
2017-10-19T08:53:13.943Z,21.87
2017-10-19T08:55:41.545Z,15.17
2017-10-19T08:58:09.211Z,15.90
2017-10-19T09:00:36.810Z,15.27
2017-10-19T09:03:04.488Z,13.60
2017-10-19T09:05:32.261Z,13.00
2017-10-19T09:07:59.891Z,11.00
2017-10-19T09:10:27.495Z,11.57
2017-10-19T09:12:55.215Z,12.20
2017-10-19T09:15:22.814Z,11.30
2017-10-19T09:17:50.473Z,11.20
2017-10-19T09:20:18.195Z,12.57
2017-10-19T09:22:45.814Z,11.73
2017-10-19T09:25:13.387Z,13.00
2017-10-19T09:27:41.039Z,12.80
2017-10-19T09:30:08.643Z,13.40
2017-10-19T09:32:36.242Z,12.80
2017-10-19T09:35:03.899Z,11.80
2017-10-19T09:37:31.640Z,12.47
2017-10-19T09:39:59.355Z,11.70
2017-10-19T09:42:27.059Z,12.10
2017-10-19T09:44:54.727Z,11.10
2017-10-19T09:47:22.388Z,9.43
2017-10-19T09:49:50.044Z,9.93
2017-10-19T09:52:17.642Z,8.73
2017-10-19T09:54:45.243Z,8.83
2017-10-19T09:57:12.953Z,10.33
2017-10-19T09:59:40.610Z,10.20
2017-10-19T10:02:08.207Z,9.00
2017-10-19T10:04:35.854Z,8.57
2017-10-19T10:07:03.516Z,8.70
2017-10-19T10:09:31.118Z,8.20
2017-10-19T10:11:58.766Z,8.30
2017-10-19T10:14:26.524Z,7.70
2017-10-19T10:16:54.187Z,7.70
2017-10-19T10:19:21.840Z,8.23
2017-10-19T10:21:49.470Z,7.97
2017-10-19T10:24:17.067Z,8.50
2017-10-19T10:26:44.789Z,7.50
2017-10-19T10:29:12.448Z,9.87
2017-10-19T10:31:40.067Z,12.87
2017-10-19T10:34:07.730Z,15.40
2017-10-19T10:36:35.335Z,23.20
2017-10-19T10:39:02.951Z,22.37
2017-10-19T10:41:30.680Z,24.17
2017-10-19T10:43:58.344Z,19.20
2017-10-19T10:46:26.016Z,18.87
2017-10-19T10:48:53.740Z,21.67
2017-10-19T10:51:21.365Z,15.67
2017-10-19T10:53:49.051Z,16.73
2017-10-19T10:56:16.726Z,15.33
2017-10-19T10:58:44.346Z,19.03
2017-10-19T11:01:11.954Z,18.37
2017-10-19T11:03:39.687Z,20.13
2017-10-19T11:06:07.320Z,19.37
2017-10-19T11:08:34.939Z,13.60
2017-10-19T11:11:02.608Z,14.17
2017-10-19T11:13:30.289Z,15.20
2017-10-19T11:15:57.951Z,19.93
2017-10-19T11:18:25.723Z,25.57
2017-10-19T11:20:53.331Z,22.90
2017-10-19T11:23:21.005Z,19.43
2017-10-19T11:25:48.737Z,12.30
2017-10-19T11:28:16.344Z,9.77
2017-10-19T11:30:43.954Z,9.33
2017-10-19T11:33:11.690Z,7.03
2017-10-19T11:35:39.303Z,6.97
2017-10-19T11:38:06.912Z,5.87
2017-10-19T11:40:34.564Z,5.40
2017-10-19T11:43:02.174Z,6.77
2017-10-19T11:45:29.788Z,5.60
2017-10-19T11:47:57.436Z,7.17
2017-10-19T11:50:25.108Z,5.90
2017-10-19T11:52:52.780Z,6.60
2017-10-19T11:55:20.512Z,6.10
2017-10-19T11:57:48.128Z,7.00
2017-10-19T12:00:15.791Z,8.17
2017-10-19T12:02:43.453Z,7.30
2017-10-19T12:05:11.063Z,5.30
2017-10-19T12:07:38.726Z,6.97
2017-10-19T12:10:06.376Z,8.10
2017-10-19T12:12:33.979Z,6.90
2017-10-19T12:15:01.636Z,7.40
2017-10-19T12:17:29.279Z,8.30
2017-10-19T12:19:56.885Z,32.90
2017-10-19T12:22:24.492Z,39.73
2017-10-19T12:24:52.143Z,33.67
2017-10-19T12:27:19.764Z,30.27
2017-10-19T12:29:47.423Z,30.10
2017-10-19T12:32:15.152Z,35.07
2017-10-19T12:34:42.819Z,60.90
2017-10-19T12:37:10.417Z,66.47
2017-10-19T12:39:38.080Z,110.97
2017-10-19T12:42:05.695Z,128.57
2017-10-19T12:44:33.346Z,130.97
2017-10-19T12:47:01.015Z,131.07
2017-10-19T12:49:28.625Z,130.40
2017-10-19T12:51:56.235Z,146.33
2017-10-19T12:54:23.994Z,146.77
2017-10-19T12:56:51.663Z,124.37
2017-10-19T12:59:19.266Z,85.87
2017-10-19T13:01:47.001Z,67.37
2017-10-19T13:04:14.611Z,54.27
2017-10-19T13:06:42.267Z,46.03
2017-10-19T13:09:09.978Z,34.60
2017-10-19T13:11:37.583Z,33.40
2017-10-19T13:14:05.199Z,31.00
2017-10-19T13:16:32.851Z,32.87
2017-10-19T13:19:00.513Z,29.73
2017-10-19T13:21:28.111Z,27.77
2017-10-19T13:23:55.832Z,26.80
2017-10-19T13:26:23.447Z,27.27
2017-10-19T13:28:51.066Z,31.30
2017-10-19T13:31:18.713Z,29.37
2017-10-19T13:33:46.322Z,30.70
2017-10-19T13:36:13.939Z,32.03
2017-10-19T13:38:41.703Z,33.83
2017-10-19T13:41:09.315Z,32.03
2017-10-19T13:43:36.972Z,30.90
2017-10-19T13:46:04.632Z,32.47
2017-10-19T13:48:32.281Z,29.23
2017-10-19T13:50:59.960Z,31.60
2017-10-19T13:53:27.674Z,33.50
2017-10-19T13:55:55.276Z,32.90
2017-10-19T13:58:22.876Z,32.73
2017-10-19T14:00:50.679Z,30.20
2017-10-19T14:03:18.343Z,28.20
2017-10-19T14:05:45.943Z,28.30
2017-10-19T14:08:13.591Z,28.07
2017-10-19T14:10:41.195Z,27.17
2017-10-19T14:13:08.795Z,25.03
2017-10-19T14:15:36.483Z,24.70
2017-10-19T14:18:04.195Z,29.40
2017-10-19T14:22:56.453Z,34.93
2017-10-19T14:25:24.120Z,33.83
2017-10-19T14:27:51.888Z,39.53
2017-10-19T14:30:19.606Z,42.63
2017-10-19T14:32:47.305Z,49.50
2017-10-19T14:35:14.960Z,42.07
2017-10-19T14:37:42.746Z,47.43
2017-10-19T14:40:10.497Z,42.27
2017-10-19T14:42:38.150Z,41.60
2017-10-19T14:45:05.851Z,43.87
2017-10-19T14:47:33.585Z,38.80
2017-10-19T14:50:01.313Z,36.33
2017-10-19T14:52:28.979Z,35.83
2017-10-19T14:54:56.648Z,33.17
2017-10-19T14:57:24.311Z,32.10
2017-10-19T14:59:51.961Z,30.00
2017-10-19T15:02:19.628Z,28.10
2017-10-19T15:04:47.296Z,26.13
2017-10-19T15:07:15.093Z,23.47
2017-10-19T15:09:42.695Z,26.30
2017-10-19T15:12:10.401Z,40.90
2017-10-19T15:14:38.166Z,41.90
2017-10-19T15:17:05.939Z,38.87
2017-10-19T15:19:33.547Z,31.10
2017-10-19T15:22:01.564Z,19.47
2017-10-19T15:24:29.334Z,15.43
2017-10-19T15:26:57.011Z,15.63
2017-10-19T15:29:24.760Z,16.10
2017-10-19T15:31:52.360Z,14.87
2017-10-19T15:34:20.161Z,14.13
2017-10-19T15:36:48.263Z,15.80
2017-10-19T15:39:15.859Z,14.70
2017-10-19T15:41:43.516Z,13.10
2017-10-19T15:44:11.179Z,15.40
2017-10-19T15:46:38.839Z,13.30
2017-10-19T15:49:06.510Z,15.67
2017-10-19T15:51:34.164Z,13.90
2017-10-19T15:54:01.767Z,12.77
2017-10-19T15:56:29.366Z,15.50
2017-10-19T15:58:57.083Z,14.47
2017-10-19T16:01:24.687Z,13.67
2017-10-19T16:03:52.327Z,16.57
2017-10-19T16:06:19.979Z,14.23
2017-10-19T16:08:47.597Z,13.67
2017-10-19T16:11:15.269Z,16.17
2017-10-19T16:13:42.971Z,16.90
2017-10-19T16:16:10.580Z,16.10
2017-10-19T16:18:38.183Z,13.67
2017-10-19T16:21:05.835Z,14.83
2017-10-19T16:23:33.431Z,14.90
2017-10-19T16:26:01.036Z,16.00
2017-10-19T16:28:28.691Z,16.13
2017-10-19T16:30:56.291Z,18.00
2017-10-19T16:33:24.008Z,15.40
2017-10-19T16:35:51.651Z,16.47
2017-10-19T16:38:19.312Z,14.53
2017-10-19T16:40:46.975Z,15.60
2017-10-19T16:43:14.634Z,15.07
2017-10-19T16:45:42.240Z,15.30
2017-10-19T16:48:09.875Z,18.40
2017-10-19T16:50:37.591Z,18.27
2017-10-19T16:53:05.208Z,14.67
2017-10-19T16:55:32.819Z,16.00
2017-10-19T16:58:00.499Z,15.00
2017-10-19T17:00:28.113Z,16.93
2017-10-19T17:02:55.836Z,13.47
2017-10-19T17:05:23.584Z,22.60
2017-10-19T17:07:51.243Z,21.97
2017-10-19T17:10:18.852Z,38.70
2017-10-19T17:12:46.660Z,29.17
2017-10-19T17:15:14.331Z,21.53
2017-10-19T17:17:42.000Z,62.97
2017-10-19T17:20:09.723Z,42.57
2017-10-19T17:22:37.337Z,37.47
2017-10-19T17:25:04.956Z,38.90
2017-10-19T17:27:32.619Z,42.70
2017-10-19T17:30:00.231Z,40.00
2017-10-19T17:32:27.843Z,40.90
2017-10-19T17:34:55.499Z,36.77
2017-10-19T17:37:23.110Z,34.30
2017-10-19T17:39:51.123Z,39.07
2017-10-19T17:42:18.770Z,33.83
2017-10-19T17:44:46.436Z,34.50
2017-10-19T17:47:14.047Z,33.30
2017-10-19T17:49:41.695Z,31.57
2017-10-19T17:52:09.302Z,32.47
2017-10-19T17:54:36.913Z,33.17
2017-10-19T17:57:06.008Z,32.23
2017-10-19T17:59:33.615Z,29.73
2017-10-19T18:02:01.211Z,30.07
2017-10-19T18:04:28.871Z,30.20
2017-10-19T18:06:56.552Z,28.60
2017-10-19T18:09:24.164Z,29.50
2017-10-19T18:11:51.823Z,26.37
2017-10-19T18:14:19.435Z,28.00
2017-10-19T18:16:47.105Z,32.07
2017-10-19T18:19:14.815Z,28.60
2017-10-19T18:21:42.427Z,30.20
2017-10-19T18:24:10.032Z,31.33
2017-10-19T18:26:37.760Z,27.93
2017-10-19T18:29:05.439Z,28.80
2017-10-19T18:31:33.048Z,29.07
2017-10-19T18:34:00.759Z,26.27
2017-10-19T18:36:28.484Z,29.47
2017-10-19T18:38:56.087Z,29.23
2017-10-19T18:41:23.753Z,28.60
2017-10-19T18:43:51.368Z,28.27
2017-10-19T18:46:18.979Z,29.03
2017-10-19T18:48:46.701Z,28.83
2017-10-19T18:51:14.318Z,29.73
2017-10-19T18:53:41.931Z,29.97
2017-10-19T18:56:09.571Z,30.70
2017-10-19T18:58:37.239Z,29.10
2017-10-19T19:01:04.891Z,32.10
2017-10-19T19:03:32.544Z,28.97
2017-10-19T19:06:00.220Z,27.00
2017-10-19T19:08:27.835Z,29.57
2017-10-19T19:10:55.475Z,28.13
2017-10-19T19:13:23.083Z,25.80
2017-10-19T19:15:50.743Z,29.70
2017-10-19T19:18:18.455Z,27.37
2017-10-19T19:20:46.123Z,25.70
2017-10-19T19:23:13.723Z,20.97
2017-10-19T19:25:41.375Z,23.50
2017-10-19T19:28:08.989Z,21.30
2017-10-19T19:30:36.599Z,21.80
2017-10-19T19:33:04.244Z,22.90
2017-10-19T19:35:31.908Z,23.50
2017-10-19T19:37:59.576Z,26.47
2017-10-19T19:40:27.257Z,24.67
2017-10-19T19:42:54.867Z,28.20
2017-10-19T19:45:22.475Z,33.70
2017-10-19T19:47:50.199Z,28.20
2017-10-19T19:50:17.799Z,26.17
2017-10-19T19:52:45.464Z,27.00
2017-10-19T19:55:13.128Z,26.63
2017-10-19T19:57:40.792Z,28.27
2017-10-19T20:00:08.394Z,26.03
2017-10-19T20:02:36.134Z,27.77
2017-10-19T20:05:03.799Z,26.97
2017-10-19T20:07:31.411Z,30.07
2017-10-19T20:09:59.059Z,29.97
2017-10-19T20:12:26.678Z,31.83
2017-10-19T20:14:54.346Z,31.20
2017-10-19T20:17:22.016Z,28.60
2017-10-19T20:19:49.701Z,29.10
2017-10-19T20:22:17.363Z,29.20
2017-10-19T20:24:45.011Z,30.03
2017-10-19T20:27:12.755Z,31.60
2017-10-19T20:29:40.363Z,29.07
2017-10-19T20:32:08.067Z,30.20
2017-10-19T20:34:35.671Z,29.73
2017-10-19T20:37:03.343Z,27.13
2017-10-19T20:39:31.055Z,25.73
2017-10-19T20:41:58.719Z,24.77
2017-10-19T20:44:26.379Z,25.57
2017-10-19T20:46:54.096Z,26.10
2017-10-19T20:49:21.756Z,23.10
2017-10-19T20:51:49.368Z,22.03
2017-10-19T20:54:17.112Z,21.57
2017-10-19T20:56:44.777Z,20.83
2017-10-19T20:59:12.382Z,20.20
2017-10-19T21:01:40.038Z,20.30
2017-10-19T21:04:07.651Z,18.67
2017-10-19T21:06:35.311Z,19.10
2017-10-19T21:09:02.977Z,17.37
2017-10-19T21:11:30.588Z,15.17
2017-10-19T21:13:58.191Z,15.73
2017-10-19T21:16:25.951Z,15.73
2017-10-19T21:18:53.571Z,16.30
2017-10-19T21:21:21.247Z,18.33
2017-10-19T21:23:48.908Z,14.30
2017-10-19T21:26:16.519Z,15.10
2017-10-19T21:28:44.184Z,15.30
2017-10-19T21:31:11.839Z,14.30
2017-10-19T21:33:39.443Z,14.33
2017-10-19T21:36:07.047Z,13.93
2017-10-19T21:38:34.764Z,13.00
2017-10-19T21:41:02.375Z,15.50
2017-10-19T21:43:30.036Z,13.80
2017-10-19T21:45:57.696Z,14.60
2017-10-19T21:48:25.312Z,15.70
2017-10-19T21:50:52.915Z,16.00
2017-10-19T21:53:20.592Z,14.77
2017-10-19T21:55:48.211Z,14.13
2017-10-19T21:58:15.823Z,15.20
2017-10-19T22:00:43.748Z,13.73
2017-10-19T22:03:11.352Z,17.87
2017-10-19T22:05:39.027Z,16.50
2017-10-19T22:08:06.687Z,17.53
2017-10-19T22:10:34.410Z,17.80
2017-10-19T22:13:02.027Z,20.30
2017-10-19T22:15:29.755Z,21.57
2017-10-19T22:17:57.380Z,23.37
2017-10-19T22:20:25.012Z,24.20
2017-10-19T22:22:52.745Z,21.17
2017-10-19T22:25:20.419Z,24.10
2017-10-19T22:27:48.035Z,22.33
2017-10-19T22:30:15.770Z,21.47
2017-10-19T22:32:43.380Z,21.00
2017-10-19T22:35:11.056Z,20.87
2017-10-19T22:37:38.716Z,17.67
2017-10-19T22:40:06.388Z,17.67
2017-10-19T22:42:34.008Z,26.73
2017-10-19T22:45:01.672Z,30.47
2017-10-19T22:47:29.293Z,30.63
2017-10-19T22:49:56.903Z,31.10
2017-10-19T22:52:24.599Z,30.63
2017-10-19T22:54:52.223Z,31.20
2017-10-19T22:57:19.834Z,32.13
2017-10-19T22:59:47.483Z,29.03
2017-10-19T23:02:15.087Z,29.37
2017-10-19T23:04:42.699Z,29.00
2017-10-19T23:07:10.415Z,31.30
2017-10-19T23:09:38.075Z,31.10
2017-10-19T23:12:05.739Z,26.17
2017-10-19T23:14:33.379Z,25.73
2017-10-19T23:17:01.024Z,24.80
2017-10-19T23:19:28.691Z,23.20
2017-10-19T23:21:56.347Z,25.43
2017-10-19T23:24:24.012Z,25.93
2017-10-19T23:26:51.667Z,25.40
2017-10-19T23:29:19.320Z,27.30
2017-10-19T23:31:46.919Z,27.00
2017-10-19T23:34:14.531Z,27.23
2017-10-19T23:36:42.238Z,25.50
2017-10-19T23:39:09.852Z,25.87
2017-10-19T23:41:37.455Z,27.37
2017-10-19T23:44:05.118Z,26.00
2017-10-19T23:46:32.723Z,26.37
2017-10-19T23:49:00.383Z,25.60
2017-10-19T23:51:28.088Z,28.70
2017-10-19T23:53:55.695Z,26.80
2017-10-19T23:56:23.302Z,21.97
2017-10-19T23:58:51.011Z,23.10
